sensor_id;sensor_type;location;lat;lon;timestamp;temperature;humidity
47779;DHT22;33538;48.432;11.350;2022-10-16T00:00:39;15.10;99.90
47779;DHT22;33538;48.432;11.350;2022-10-16T00:03:07;15.00;99.90
47779;DHT22;33538;48.432;11.350;2022-10-16T00:05:39;15.00;99.90
47779;DHT22;33538;48.432;11.350;2022-10-16T00:08:06;15.00;99.90
47779;DHT22;33538;48.432;11.350;2022-10-16T00:10:33;15.00;99.90
47779;DHT22;33538;48.432;11.350;2022-10-16T00:13:00;15.00;99.90
47779;DHT22;33538;48.432;11.350;2022-10-16T00:15:27;15.00;99.90
47779;DHT22;33538;48.432;11.350;2022-10-16T00:17:55;14.90;99.90
47779;DHT22;33538;48.432;11.350;2022-10-16T00:20:22;14.90;99.90
47779;DHT22;33538;48.432;11.350;2022-10-16T00:22:49;14.90;99.90
47779;DHT22;33538;48.432;11.350;2022-10-16T00:25:16;15.00;99.90
47779;DHT22;33538;48.432;11.350;2022-10-16T00:27:42;14.90;99.90
47779;DHT22;33538;48.432;11.350;2022-10-16T00:30:09;14.90;99.90
47779;DHT22;33538;48.432;11.350;2022-10-16T00:32:36;14.90;99.90
47779;DHT22;33538;48.432;11.350;2022-10-16T00:35:05;14.80;99.90
47779;DHT22;33538;48.432;11.350;2022-10-16T00:37:32;14.90;99.90
47779;DHT22;33538;48.432;11.350;2022-10-16T00:39:58;14.90;99.90
47779;DHT22;33538;48.432;11.350;2022-10-16T00:42:25;14.80;99.90
47779;DHT22;33538;48.432;11.350;2022-10-16T00:44:54;14.80;99.90
47779;DHT22;33538;48.432;11.350;2022-10-16T00:47:25;14.90;99.90
47779;DHT22;33538;48.432;11.350;2022-10-16T00:49:57;14.80;99.90
47779;DHT22;33538;48.432;11.350;2022-10-16T00:52:26;14.90;99.90
47779;DHT22;33538;48.432;11.350;2022-10-16T00:54:54;14.90;99.90
47779;DHT22;33538;48.432;11.350;2022-10-16T00:57:22;14.90;99.90
47779;DHT22;33538;48.432;11.350;2022-10-16T00:59:49;14.90;99.90
47779;DHT22;33538;48.432;11.350;2022-10-16T01:02:16;14.90;99.90
47779;DHT22;33538;48.432;11.350;2022-10-16T01:04:45;14.90;99.90
47779;DHT22;33538;48.432;11.350;2022-10-16T01:07:16;14.90;99.90
47779;DHT22;33538;48.432;11.350;2022-10-16T01:09:54;14.80;99.90
47779;DHT22;33538;48.432;11.350;2022-10-16T01:12:33;14.80;99.90
47779;DHT22;33538;48.432;11.350;2022-10-16T01:15:10;14.80;99.90
47779;DHT22;33538;48.432;11.350;2022-10-16T01:17:43;14.70;99.90
47779;DHT22;33538;48.432;11.350;2022-10-16T01:20:17;14.80;99.90
47779;DHT22;33538;48.432;11.350;2022-10-16T01:22:54;14.80;99.90
47779;DHT22;33538;48.432;11.350;2022-10-16T01:25:31;14.70;99.90
47779;DHT22;33538;48.432;11.350;2022-10-16T01:28:06;14.70;99.90
47779;DHT22;33538;48.432;11.350;2022-10-16T01:30:36;14.70;99.90
47779;DHT22;33538;48.432;11.350;2022-10-16T01:33:10;14.70;99.90
47779;DHT22;33538;48.432;11.350;2022-10-16T01:35:41;14.70;99.90
47779;DHT22;33538;48.432;11.350;2022-10-16T01:38:12;14.70;99.90
47779;DHT22;33538;48.432;11.350;2022-10-16T01:40:46;14.70;99.90
47779;DHT22;33538;48.432;11.350;2022-10-16T01:43:17;14.70;99.90
47779;DHT22;33538;48.432;11.350;2022-10-16T01:45:46;14.70;99.90
47779;DHT22;33538;48.432;11.350;2022-10-16T01:48:14;14.70;99.90
47779;DHT22;33538;48.432;11.350;2022-10-16T01:50:56;14.70;99.90
47779;DHT22;33538;48.432;11.350;2022-10-16T01:53:24;14.70;99.90
47779;DHT22;33538;48.432;11.350;2022-10-16T01:55:54;14.70;99.90
47779;DHT22;33538;48.432;11.350;2022-10-16T01:58:23;14.70;99.90
47779;DHT22;33538;48.432;11.350;2022-10-16T02:00:52;14.60;99.90
47779;DHT22;33538;48.432;11.350;2022-10-16T02:03:20;14.60;99.90
47779;DHT22;33538;48.432;11.350;2022-10-16T02:05:50;14.70;99.90
47779;DHT22;33538;48.432;11.350;2022-10-16T02:08:18;14.60;99.90
47779;DHT22;33538;48.432;11.350;2022-10-16T02:10:45;14.70;99.90
47779;DHT22;33538;48.432;11.350;2022-10-16T02:13:14;14.70;99.90
47779;DHT22;33538;48.432;11.350;2022-10-16T02:15:44;14.70;99.90
47779;DHT22;33538;48.432;11.350;2022-10-16T02:18:11;14.60;99.90
47779;DHT22;33538;48.432;11.350;2022-10-16T02:20:43;14.60;99.90
47779;DHT22;33538;48.432;11.350;2022-10-16T02:23:18;14.60;99.90
47779;DHT22;33538;48.432;11.350;2022-10-16T02:25:47;14.60;99.90
47779;DHT22;33538;48.432;11.350;2022-10-16T02:28:17;14.50;99.90
47779;DHT22;33538;48.432;11.350;2022-10-16T02:30:49;14.50;99.90
47779;DHT22;33538;48.432;11.350;2022-10-16T02:33:18;14.50;99.90
47779;DHT22;33538;48.432;11.350;2022-10-16T02:35:48;14.60;99.90
47779;DHT22;33538;48.432;11.350;2022-10-16T02:38:16;14.60;99.90
47779;DHT22;33538;48.432;11.350;2022-10-16T02:40:44;14.50;99.90
47779;DHT22;33538;48.432;11.350;2022-10-16T02:43:11;14.50;99.90
47779;DHT22;33538;48.432;11.350;2022-10-16T02:45:39;14.50;99.90
47779;DHT22;33538;48.432;11.350;2022-10-16T02:48:07;14.40;99.90
47779;DHT22;33538;48.432;11.350;2022-10-16T02:50:34;14.40;99.90
47779;DHT22;33538;48.432;11.350;2022-10-16T02:53:01;14.30;99.90
47779;DHT22;33538;48.432;11.350;2022-10-16T02:55:28;14.40;99.90
47779;DHT22;33538;48.432;11.350;2022-10-16T02:57:55;14.40;99.90
47779;DHT22;33538;48.432;11.350;2022-10-16T03:00:22;14.40;99.90
47779;DHT22;33538;48.432;11.350;2022-10-16T03:02:49;14.50;99.90
47779;DHT22;33538;48.432;11.350;2022-10-16T03:05:17;14.40;99.90
47779;DHT22;33538;48.432;11.350;2022-10-16T03:07:44;14.40;99.90
47779;DHT22;33538;48.432;11.350;2022-10-16T03:10:11;14.40;99.90
47779;DHT22;33538;48.432;11.350;2022-10-16T03:12:38;14.40;99.90
47779;DHT22;33538;48.432;11.350;2022-10-16T03:15:05;14.50;99.90
47779;DHT22;33538;48.432;11.350;2022-10-16T03:17:32;14.50;99.90
47779;DHT22;33538;48.432;11.350;2022-10-16T03:19:59;14.50;99.90
47779;DHT22;33538;48.432;11.350;2022-10-16T03:22:27;14.40;99.90
47779;DHT22;33538;48.432;11.350;2022-10-16T03:24:54;14.40;99.90
47779;DHT22;33538;48.432;11.350;2022-10-16T03:27:21;14.40;99.90
47779;DHT22;33538;48.432;11.350;2022-10-16T03:29:48;14.30;99.90
47779;DHT22;33538;48.432;11.350;2022-10-16T03:32:15;14.40;99.90
47779;DHT22;33538;48.432;11.350;2022-10-16T03:34:41;14.40;99.90
47779;DHT22;33538;48.432;11.350;2022-10-16T03:37:08;14.50;99.90
47779;DHT22;33538;48.432;11.350;2022-10-16T03:39:37;14.40;99.90
47779;DHT22;33538;48.432;11.350;2022-10-16T03:42:04;14.40;99.90
47779;DHT22;33538;48.432;11.350;2022-10-16T03:44:30;14.40;99.90
47779;DHT22;33538;48.432;11.350;2022-10-16T03:46:57;14.40;99.90
47779;DHT22;33538;48.432;11.350;2022-10-16T03:49:24;14.40;99.90
47779;DHT22;33538;48.432;11.350;2022-10-16T03:51:51;14.40;99.90
47779;DHT22;33538;48.432;11.350;2022-10-16T03:54:17;14.50;99.90
47779;DHT22;33538;48.432;11.350;2022-10-16T03:56:45;14.40;99.90
47779;DHT22;33538;48.432;11.350;2022-10-16T03:59:12;14.40;99.90
47779;DHT22;33538;48.432;11.350;2022-10-16T04:01:39;14.30;99.90
47779;DHT22;33538;48.432;11.350;2022-10-16T04:04:06;14.30;99.90
47779;DHT22;33538;48.432;11.350;2022-10-16T04:06:33;14.30;99.90
47779;DHT22;33538;48.432;11.350;2022-10-16T04:08:59;14.20;99.90
47779;DHT22;33538;48.432;11.350;2022-10-16T04:11:26;14.30;99.90
47779;DHT22;33538;48.432;11.350;2022-10-16T04:13:54;14.40;99.90
47779;DHT22;33538;48.432;11.350;2022-10-16T04:16:21;14.40;99.90
47779;DHT22;33538;48.432;11.350;2022-10-16T04:18:48;14.40;99.90
47779;DHT22;33538;48.432;11.350;2022-10-16T04:21:15;14.40;99.90
47779;DHT22;33538;48.432;11.350;2022-10-16T04:23:42;14.40;99.90
47779;DHT22;33538;48.432;11.350;2022-10-16T04:26:09;14.30;99.90
47779;DHT22;33538;48.432;11.350;2022-10-16T04:28:36;14.30;99.90
47779;DHT22;33538;48.432;11.350;2022-10-16T04:31:05;14.30;99.90
47779;DHT22;33538;48.432;11.350;2022-10-16T04:33:32;14.30;99.90
47779;DHT22;33538;48.432;11.350;2022-10-16T04:36:00;14.30;99.90
47779;DHT22;33538;48.432;11.350;2022-10-16T04:38:27;14.30;99.90
47779;DHT22;33538;48.432;11.350;2022-10-16T04:40:54;14.30;99.90
47779;DHT22;33538;48.432;11.350;2022-10-16T04:43:21;14.20;99.90
47779;DHT22;33538;48.432;11.350;2022-10-16T04:45:48;14.20;99.90
47779;DHT22;33538;48.432;11.350;2022-10-16T04:48:16;14.30;99.90
47779;DHT22;33538;48.432;11.350;2022-10-16T04:50:43;14.40;99.90
47779;DHT22;33538;48.432;11.350;2022-10-16T04:53:10;14.40;99.90
47779;DHT22;33538;48.432;11.350;2022-10-16T04:55:36;14.40;99.90
47779;DHT22;33538;48.432;11.350;2022-10-16T04:58:04;14.40;99.90
47779;DHT22;33538;48.432;11.350;2022-10-16T05:00:31;14.30;99.90
47779;DHT22;33538;48.432;11.350;2022-10-16T05:02:57;14.40;99.90
47779;DHT22;33538;48.432;11.350;2022-10-16T05:05:26;14.30;99.90
47779;DHT22;33538;48.432;11.350;2022-10-16T05:07:53;14.30;99.90
47779;DHT22;33538;48.432;11.350;2022-10-16T05:10:20;14.30;99.90
47779;DHT22;33538;48.432;11.350;2022-10-16T05:12:47;14.30;99.90
47779;DHT22;33538;48.432;11.350;2022-10-16T05:15:14;14.30;99.90
47779;DHT22;33538;48.432;11.350;2022-10-16T05:17:40;14.30;99.90
47779;DHT22;33538;48.432;11.350;2022-10-16T05:20:10;14.20;99.90
47779;DHT22;33538;48.432;11.350;2022-10-16T05:22:39;14.10;99.90
47779;DHT22;33538;48.432;11.350;2022-10-16T05:25:06;14.20;99.90
47779;DHT22;33538;48.432;11.350;2022-10-16T05:27:33;14.30;99.90
47779;DHT22;33538;48.432;11.350;2022-10-16T05:29:59;14.30;99.90
47779;DHT22;33538;48.432;11.350;2022-10-16T05:32:26;14.30;99.90
47779;DHT22;33538;48.432;11.350;2022-10-16T05:34:53;14.30;99.90
47779;DHT22;33538;48.432;11.350;2022-10-16T05:37:20;14.30;99.90
47779;DHT22;33538;48.432;11.350;2022-10-16T05:39:48;14.30;99.90
47779;DHT22;33538;48.432;11.350;2022-10-16T05:42:15;14.10;99.90
47779;DHT22;33538;48.432;11.350;2022-10-16T05:44:41;14.00;99.90
47779;DHT22;33538;48.432;11.350;2022-10-16T05:47:08;14.00;99.90
47779;DHT22;33538;48.432;11.350;2022-10-16T05:49:35;14.00;99.90
47779;DHT22;33538;48.432;11.350;2022-10-16T05:52:06;14.00;99.90
47779;DHT22;33538;48.432;11.350;2022-10-16T05:54:33;13.90;99.90
47779;DHT22;33538;48.432;11.350;2022-10-16T05:57:01;13.90;99.90
47779;DHT22;33538;48.432;11.350;2022-10-16T05:59:28;13.90;99.90
47779;DHT22;33538;48.432;11.350;2022-10-16T06:01:55;13.90;99.90
47779;DHT22;33538;48.432;11.350;2022-10-16T06:04:21;14.00;99.90
47779;DHT22;33538;48.432;11.350;2022-10-16T06:06:48;14.10;99.90
47779;DHT22;33538;48.432;11.350;2022-10-16T06:09:15;14.10;99.90
47779;DHT22;33538;48.432;11.350;2022-10-16T06:11:42;14.20;99.90
47779;DHT22;33538;48.432;11.350;2022-10-16T06:14:10;14.10;99.90
47779;DHT22;33538;48.432;11.350;2022-10-16T06:16:37;14.10;99.90
47779;DHT22;33538;48.432;11.350;2022-10-16T06:19:04;14.10;99.90
47779;DHT22;33538;48.432;11.350;2022-10-16T06:21:31;14.20;99.90
47779;DHT22;33538;48.432;11.350;2022-10-16T06:23:58;14.20;99.90
47779;DHT22;33538;48.432;11.350;2022-10-16T06:26:26;14.10;99.90
47779;DHT22;33538;48.432;11.350;2022-10-16T06:28:54;14.10;99.90
47779;DHT22;33538;48.432;11.350;2022-10-16T06:31:22;14.00;99.90
47779;DHT22;33538;48.432;11.350;2022-10-16T06:33:50;14.10;99.90
47779;DHT22;33538;48.432;11.350;2022-10-16T06:36:17;14.10;99.90
47779;DHT22;33538;48.432;11.350;2022-10-16T06:38:44;14.10;99.90
47779;DHT22;33538;48.432;11.350;2022-10-16T06:41:13;14.10;99.90
47779;DHT22;33538;48.432;11.350;2022-10-16T06:43:40;14.10;99.90
47779;DHT22;33538;48.432;11.350;2022-10-16T06:46:09;14.10;99.90
47779;DHT22;33538;48.432;11.350;2022-10-16T06:48:38;14.20;99.90
47779;DHT22;33538;48.432;11.350;2022-10-16T06:51:08;14.20;99.90
47779;DHT22;33538;48.432;11.350;2022-10-16T06:53:36;14.20;99.90
47779;DHT22;33538;48.432;11.350;2022-10-16T06:56:16;14.20;99.90
47779;DHT22;33538;48.432;11.350;2022-10-16T06:58:43;14.20;99.90
47779;DHT22;33538;48.432;11.350;2022-10-16T07:01:11;14.20;99.90
47779;DHT22;33538;48.432;11.350;2022-10-16T07:03:41;14.30;99.90
47779;DHT22;33538;48.432;11.350;2022-10-16T07:06:10;14.30;99.90
47779;DHT22;33538;48.432;11.350;2022-10-16T07:08:38;14.30;99.90
47779;DHT22;33538;48.432;11.350;2022-10-16T07:11:07;14.40;99.90
47779;DHT22;33538;48.432;11.350;2022-10-16T07:13:34;14.40;99.90
47779;DHT22;33538;48.432;11.350;2022-10-16T07:16:04;14.40;99.90
47779;DHT22;33538;48.432;11.350;2022-10-16T07:18:31;14.50;99.90
47779;DHT22;33538;48.432;11.350;2022-10-16T07:21:05;14.50;99.90
47779;DHT22;33538;48.432;11.350;2022-10-16T07:23:32;14.50;99.90
47779;DHT22;33538;48.432;11.350;2022-10-16T07:25:58;14.60;99.90
47779;DHT22;33538;48.432;11.350;2022-10-16T07:28:25;14.60;99.90
47779;DHT22;33538;48.432;11.350;2022-10-16T07:30:52;14.60;99.90
47779;DHT22;33538;48.432;11.350;2022-10-16T07:33:19;14.60;99.90
47779;DHT22;33538;48.432;11.350;2022-10-16T07:35:49;14.60;99.90
47779;DHT22;33538;48.432;11.350;2022-10-16T07:38:18;14.60;99.90
47779;DHT22;33538;48.432;11.350;2022-10-16T07:40:45;14.60;99.90
47779;DHT22;33538;48.432;11.350;2022-10-16T07:43:13;14.70;99.90
47779;DHT22;33538;48.432;11.350;2022-10-16T07:45:47;14.70;99.90
47779;DHT22;33538;48.432;11.350;2022-10-16T07:48:14;14.70;99.90
47779;DHT22;33538;48.432;11.350;2022-10-16T07:50:40;14.70;99.90
47779;DHT22;33538;48.432;11.350;2022-10-16T07:53:08;14.70;99.90
47779;DHT22;33538;48.432;11.350;2022-10-16T07:55:36;14.70;99.90
47779;DHT22;33538;48.432;11.350;2022-10-16T07:58:03;14.70;99.90
47779;DHT22;33538;48.432;11.350;2022-10-16T08:00:30;14.70;99.90
47779;DHT22;33538;48.432;11.350;2022-10-16T08:02:57;14.80;99.90
47779;DHT22;33538;48.432;11.350;2022-10-16T08:05:24;14.80;99.90
47779;DHT22;33538;48.432;11.350;2022-10-16T08:07:51;14.80;99.90
47779;DHT22;33538;48.432;11.350;2022-10-16T08:10:19;14.80;99.90
47779;DHT22;33538;48.432;11.350;2022-10-16T08:12:47;14.80;99.90
47779;DHT22;33538;48.432;11.350;2022-10-16T08:15:14;14.80;99.90
47779;DHT22;33538;48.432;11.350;2022-10-16T08:17:41;14.90;99.90
47779;DHT22;33538;48.432;11.350;2022-10-16T08:20:09;14.90;99.90
47779;DHT22;33538;48.432;11.350;2022-10-16T08:22:36;14.90;99.90
47779;DHT22;33538;48.432;11.350;2022-10-16T08:25:03;14.90;99.90
47779;DHT22;33538;48.432;11.350;2022-10-16T08:27:31;15.00;99.90
47779;DHT22;33538;48.432;11.350;2022-10-16T08:29:59;15.00;99.90
47779;DHT22;33538;48.432;11.350;2022-10-16T08:32:26;15.00;99.90
47779;DHT22;33538;48.432;11.350;2022-10-16T08:34:53;14.90;99.90
47779;DHT22;33538;48.432;11.350;2022-10-16T08:37:20;15.00;99.90
47779;DHT22;33538;48.432;11.350;2022-10-16T08:39:46;15.00;99.90
47779;DHT22;33538;48.432;11.350;2022-10-16T08:42:21;15.10;99.90
47779;DHT22;33538;48.432;11.350;2022-10-16T08:45:07;15.10;99.90
47779;DHT22;33538;48.432;11.350;2022-10-16T08:47:43;15.10;99.90
47779;DHT22;33538;48.432;11.350;2022-10-16T08:50:13;15.10;99.90
47779;DHT22;33538;48.432;11.350;2022-10-16T08:52:43;15.20;99.90
47779;DHT22;33538;48.432;11.350;2022-10-16T08:55:20;15.10;99.90
47779;DHT22;33538;48.432;11.350;2022-10-16T08:57:51;15.20;99.90
47779;DHT22;33538;48.432;11.350;2022-10-16T09:00:20;15.20;99.90
47779;DHT22;33538;48.432;11.350;2022-10-16T09:02:52;15.30;99.90
47779;DHT22;33538;48.432;11.350;2022-10-16T09:05:33;15.20;99.90
47779;DHT22;33538;48.432;11.350;2022-10-16T09:08:11;15.30;99.90
47779;DHT22;33538;48.432;11.350;2022-10-16T09:10:52;15.30;99.90
47779;DHT22;33538;48.432;11.350;2022-10-16T09:13:25;15.30;99.90
47779;DHT22;33538;48.432;11.350;2022-10-16T09:16:01;15.40;99.90
47779;DHT22;33538;48.432;11.350;2022-10-16T09:18:33;15.40;99.90
47779;DHT22;33538;48.432;11.350;2022-10-16T09:21:08;15.40;99.90
47779;DHT22;33538;48.432;11.350;2022-10-16T09:23:36;15.40;99.90
47779;DHT22;33538;48.432;11.350;2022-10-16T09:26:05;15.40;99.90
47779;DHT22;33538;48.432;11.350;2022-10-16T09:28:35;15.50;99.90
47779;DHT22;33538;48.432;11.350;2022-10-16T09:31:03;15.50;99.90
47779;DHT22;33538;48.432;11.350;2022-10-16T09:33:35;15.50;99.90
47779;DHT22;33538;48.432;11.350;2022-10-16T09:36:05;15.60;99.90
47779;DHT22;33538;48.432;11.350;2022-10-16T09:38:34;15.60;99.90
47779;DHT22;33538;48.432;11.350;2022-10-16T09:41:13;15.60;99.90
47779;DHT22;33538;48.432;11.350;2022-10-16T09:43:46;15.60;99.90
47779;DHT22;33538;48.432;11.350;2022-10-16T09:46:25;15.70;99.90
47779;DHT22;33538;48.432;11.350;2022-10-16T09:48:54;15.70;99.90
47779;DHT22;33538;48.432;11.350;2022-10-16T09:51:24;15.70;99.90
47779;DHT22;33538;48.432;11.350;2022-10-16T09:53:55;15.70;99.90
47779;DHT22;33538;48.432;11.350;2022-10-16T09:56:24;15.80;99.90
47779;DHT22;33538;48.432;11.350;2022-10-16T09:58:52;15.80;99.90
47779;DHT22;33538;48.432;11.350;2022-10-16T10:01:20;15.80;99.90
47779;DHT22;33538;48.432;11.350;2022-10-16T10:03:49;15.90;99.90
47779;DHT22;33538;48.432;11.350;2022-10-16T10:06:24;15.90;99.90
47779;DHT22;33538;48.432;11.350;2022-10-16T10:08:59;15.90;99.90
47779;DHT22;33538;48.432;11.350;2022-10-16T10:11:41;15.90;99.90
47779;DHT22;33538;48.432;11.350;2022-10-16T10:14:21;16.00;99.90
47779;DHT22;33538;48.432;11.350;2022-10-16T10:16:51;16.00;99.90
47779;DHT22;33538;48.432;11.350;2022-10-16T10:19:20;16.00;99.90
47779;DHT22;33538;48.432;11.350;2022-10-16T10:21:48;16.10;99.90
47779;DHT22;33538;48.432;11.350;2022-10-16T10:24:16;16.10;99.90
47779;DHT22;33538;48.432;11.350;2022-10-16T10:26:49;16.10;99.90
47779;DHT22;33538;48.432;11.350;2022-10-16T10:29:24;16.20;99.90
47779;DHT22;33538;48.432;11.350;2022-10-16T10:32:02;16.20;99.90
47779;DHT22;33538;48.432;11.350;2022-10-16T10:34:44;16.20;99.90
47779;DHT22;33538;48.432;11.350;2022-10-16T10:37:42;16.20;99.90
47779;DHT22;33538;48.432;11.350;2022-10-16T10:40:22;16.30;99.90
47779;DHT22;33538;48.432;11.350;2022-10-16T10:42:54;16.30;99.90
47779;DHT22;33538;48.432;11.350;2022-10-16T10:45:26;16.30;99.90
47779;DHT22;33538;48.432;11.350;2022-10-16T10:48:08;16.30;99.90
47779;DHT22;33538;48.432;11.350;2022-10-16T10:50:42;16.30;99.90
47779;DHT22;33538;48.432;11.350;2022-10-16T10:53:30;16.30;99.90
47779;DHT22;33538;48.432;11.350;2022-10-16T10:56:07;16.40;99.90
47779;DHT22;33538;48.432;11.350;2022-10-16T10:59:02;16.40;99.90
47779;DHT22;33538;48.432;11.350;2022-10-16T11:01:40;16.40;99.90
47779;DHT22;33538;48.432;11.350;2022-10-16T11:04:34;16.50;99.90
47779;DHT22;33538;48.432;11.350;2022-10-16T11:07:05;16.50;99.90
47779;DHT22;33538;48.432;11.350;2022-10-16T11:09:36;16.50;99.90
47779;DHT22;33538;48.432;11.350;2022-10-16T11:12:10;16.50;99.90
47779;DHT22;33538;48.432;11.350;2022-10-16T11:14:49;16.60;99.90
47779;DHT22;33538;48.432;11.350;2022-10-16T11:17:21;16.60;99.90
47779;DHT22;33538;48.432;11.350;2022-10-16T11:19:54;16.60;99.90
47779;DHT22;33538;48.432;11.350;2022-10-16T11:22:26;16.70;99.90
47779;DHT22;33538;48.432;11.350;2022-10-16T11:25:00;16.70;99.90
47779;DHT22;33538;48.432;11.350;2022-10-16T11:27:35;16.70;99.90
47779;DHT22;33538;48.432;11.350;2022-10-16T11:30:12;16.80;99.90
47779;DHT22;33538;48.432;11.350;2022-10-16T11:32:49;16.80;99.90
47779;DHT22;33538;48.432;11.350;2022-10-16T11:35:22;16.80;99.90
47779;DHT22;33538;48.432;11.350;2022-10-16T11:37:51;16.90;99.90
47779;DHT22;33538;48.432;11.350;2022-10-16T11:40:23;16.90;99.90
47779;DHT22;33538;48.432;11.350;2022-10-16T11:42:54;16.90;99.90
47779;DHT22;33538;48.432;11.350;2022-10-16T11:45:30;16.90;99.90
47779;DHT22;33538;48.432;11.350;2022-10-16T11:48:04;17.00;99.90
47779;DHT22;33538;48.432;11.350;2022-10-16T11:50:39;17.00;99.90
47779;DHT22;33538;48.432;11.350;2022-10-16T11:53:15;17.00;99.90
47779;DHT22;33538;48.432;11.350;2022-10-16T11:55:45;17.00;99.90
47779;DHT22;33538;48.432;11.350;2022-10-16T11:58:20;17.00;99.90
47779;DHT22;33538;48.432;11.350;2022-10-16T12:00:55;17.10;99.90
47779;DHT22;33538;48.432;11.350;2022-10-16T12:03:28;17.10;99.90
47779;DHT22;33538;48.432;11.350;2022-10-16T12:06:12;17.10;99.90
47779;DHT22;33538;48.432;11.350;2022-10-16T12:08:40;17.10;99.90
47779;DHT22;33538;48.432;11.350;2022-10-16T12:11:19;17.20;99.90
47779;DHT22;33538;48.432;11.350;2022-10-16T12:13:47;17.20;99.90
47779;DHT22;33538;48.432;11.350;2022-10-16T12:16:22;17.20;99.90
47779;DHT22;33538;48.432;11.350;2022-10-16T12:18:49;17.30;99.90
47779;DHT22;33538;48.432;11.350;2022-10-16T12:21:31;17.30;99.90
47779;DHT22;33538;48.432;11.350;2022-10-16T12:23:58;17.30;99.90
47779;DHT22;33538;48.432;11.350;2022-10-16T12:26:28;17.30;99.90
47779;DHT22;33538;48.432;11.350;2022-10-16T12:29:12;17.30;99.90
47779;DHT22;33538;48.432;11.350;2022-10-16T12:31:44;17.40;99.90
47779;DHT22;33538;48.432;11.350;2022-10-16T12:34:23;17.40;99.90
47779;DHT22;33538;48.432;11.350;2022-10-16T12:36:54;17.40;99.90
47779;DHT22;33538;48.432;11.350;2022-10-16T12:39:23;17.40;99.90
47779;DHT22;33538;48.432;11.350;2022-10-16T12:42:01;17.40;99.90
47779;DHT22;33538;48.432;11.350;2022-10-16T12:44:33;17.50;99.90
47779;DHT22;33538;48.432;11.350;2022-10-16T12:47:00;17.50;99.90
47779;DHT22;33538;48.432;11.350;2022-10-16T12:49:35;17.50;99.90
47779;DHT22;33538;48.432;11.350;2022-10-16T12:52:04;17.50;99.90
47779;DHT22;33538;48.432;11.350;2022-10-16T12:54:35;17.50;99.90
47779;DHT22;33538;48.432;11.350;2022-10-16T12:57:18;17.60;99.90
47779;DHT22;33538;48.432;11.350;2022-10-16T12:59:53;17.60;99.90
47779;DHT22;33538;48.432;11.350;2022-10-16T13:02:46;17.60;99.90
47779;DHT22;33538;48.432;11.350;2022-10-16T13:05:26;17.60;99.90
47779;DHT22;33538;48.432;11.350;2022-10-16T13:08:06;17.70;99.90
47779;DHT22;33538;48.432;11.350;2022-10-16T13:10:41;17.70;99.90
47779;DHT22;33538;48.432;11.350;2022-10-16T13:13:37;17.70;99.90
47779;DHT22;33538;48.432;11.350;2022-10-16T13:16:17;17.70;99.90
47779;DHT22;33538;48.432;11.350;2022-10-16T13:18:59;17.80;99.90
47779;DHT22;33538;48.432;11.350;2022-10-16T13:21:36;17.70;99.90
47779;DHT22;33538;48.432;11.350;2022-10-16T13:24:15;17.80;99.90
47779;DHT22;33538;48.432;11.350;2022-10-16T13:26:48;17.80;99.90
47779;DHT22;33538;48.432;11.350;2022-10-16T13:29:16;17.80;99.90
47779;DHT22;33538;48.432;11.350;2022-10-16T13:31:44;17.80;99.90
47779;DHT22;33538;48.432;11.350;2022-10-16T13:34:14;17.80;99.90
47779;DHT22;33538;48.432;11.350;2022-10-16T13:36:46;17.90;99.90
47779;DHT22;33538;48.432;11.350;2022-10-16T13:39:20;17.90;99.90
47779;DHT22;33538;48.432;11.350;2022-10-16T13:41:58;17.90;99.90
47779;DHT22;33538;48.432;11.350;2022-10-16T13:44:37;17.90;99.90
47779;DHT22;33538;48.432;11.350;2022-10-16T13:47:10;17.90;99.90
47779;DHT22;33538;48.432;11.350;2022-10-16T13:49:40;17.90;99.90
47779;DHT22;33538;48.432;11.350;2022-10-16T13:52:17;17.90;99.90
47779;DHT22;33538;48.432;11.350;2022-10-16T13:54:46;17.90;99.90
47779;DHT22;33538;48.432;11.350;2022-10-16T13:57:14;17.90;99.90
47779;DHT22;33538;48.432;11.350;2022-10-16T13:59:53;18.00;99.90
47779;DHT22;33538;48.432;11.350;2022-10-16T14:02:24;18.00;99.90
47779;DHT22;33538;48.432;11.350;2022-10-16T14:04:53;18.00;99.90
47779;DHT22;33538;48.432;11.350;2022-10-16T14:07:23;17.90;99.90
47779;DHT22;33538;48.432;11.350;2022-10-16T14:09:53;18.00;99.90
47779;DHT22;33538;48.432;11.350;2022-10-16T14:12:22;18.00;99.90
47779;DHT22;33538;48.432;11.350;2022-10-16T14:14:54;18.00;99.90
47779;DHT22;33538;48.432;11.350;2022-10-16T14:17:23;18.00;99.90
47779;DHT22;33538;48.432;11.350;2022-10-16T14:19:53;18.00;99.90
47779;DHT22;33538;48.432;11.350;2022-10-16T14:22:30;18.10;99.90
47779;DHT22;33538;48.432;11.350;2022-10-16T14:24:59;18.10;99.90
47779;DHT22;33538;48.432;11.350;2022-10-16T14:27:29;18.10;99.90
47779;DHT22;33538;48.432;11.350;2022-10-16T14:30:13;18.10;99.90
47779;DHT22;33538;48.432;11.350;2022-10-16T14:32:41;18.10;99.90
47779;DHT22;33538;48.432;11.350;2022-10-16T14:35:22;18.10;99.90
47779;DHT22;33538;48.432;11.350;2022-10-16T14:37:52;18.10;99.90
47779;DHT22;33538;48.432;11.350;2022-10-16T14:40:21;18.10;99.90
47779;DHT22;33538;48.432;11.350;2022-10-16T14:42:49;18.20;99.90
47779;DHT22;33538;48.432;11.350;2022-10-16T14:45:20;18.20;99.90
47779;DHT22;33538;48.432;11.350;2022-10-16T14:47:49;18.20;99.90
47779;DHT22;33538;48.432;11.350;2022-10-16T14:50:16;18.20;99.90
47779;DHT22;33538;48.432;11.350;2022-10-16T14:52:43;18.20;99.90
47779;DHT22;33538;48.432;11.350;2022-10-16T14:55:10;18.20;99.90
47779;DHT22;33538;48.432;11.350;2022-10-16T14:57:39;18.20;99.90
47779;DHT22;33538;48.432;11.350;2022-10-16T15:00:13;18.20;99.90
47779;DHT22;33538;48.432;11.350;2022-10-16T15:02:42;18.20;99.90
47779;DHT22;33538;48.432;11.350;2022-10-16T15:05:14;18.20;99.90
47779;DHT22;33538;48.432;11.350;2022-10-16T15:07:41;18.20;99.90
47779;DHT22;33538;48.432;11.350;2022-10-16T15:10:08;18.20;99.90
47779;DHT22;33538;48.432;11.350;2022-10-16T15:12:35;18.20;99.90
47779;DHT22;33538;48.432;11.350;2022-10-16T15:15:25;18.30;99.90
47779;DHT22;33538;48.432;11.350;2022-10-16T15:17:52;18.30;99.90
47779;DHT22;33538;48.432;11.350;2022-10-16T15:20:19;18.30;99.90
47779;DHT22;33538;48.432;11.350;2022-10-16T15:22:46;18.30;99.90
47779;DHT22;33538;48.432;11.350;2022-10-16T15:25:30;18.30;99.90
47779;DHT22;33538;48.432;11.350;2022-10-16T15:27:57;18.20;99.90
47779;DHT22;33538;48.432;11.350;2022-10-16T15:30:26;18.30;99.90
47779;DHT22;33538;48.432;11.350;2022-10-16T15:32:53;18.30;99.90
47779;DHT22;33538;48.432;11.350;2022-10-16T15:35:21;18.30;99.90